Time;durP1;ratioP1;P1;durP2;ratioP2;P2;SDS_P1;SDS_P2;PMS_P1;PMS_P2;Temp;Humidity;BMP_temperature;BMP_pressure;BME280_temperature;BME280_humidity;BME280_pressure;Samples;Min_cycle;Max_cycle;Signal;HPM_P1;HPM_P2
2022/09/19 00:00:36;;;;;;;4.38;1.67;;;;;;;;;;5002983;28;20037;-79
2022/09/19 00:03:02;;;;;;;6.07;1.60;;;;;;;;;;5019672;28;23248;-83
2022/09/19 00:05:38;;;;;;;2.85;1.50;;;11.40;99.90;;;;;;4999891;28;21006;-83
2022/09/19 00:08:04;;;;;;;3.83;1.50;;;11.40;99.90;;;;;;5002531;28;20041;-85
2022/09/19 00:10:30;;;;;;;4.53;1.42;;;;;;;;;;4987427;28;20411;-82
2022/09/19 00:12:58;;;;;;;5.18;1.65;;;11.30;99.90;;;;;;5004878;28;20033;-79
2022/09/19 00:15:24;;;;;;;2.03;1.23;;;;;;;;;;5019840;28;20045;-84
2022/09/19 00:17:50;;;;;;;2.85;1.40;;;;;;;;;;5001984;28;20419;-82
2022/09/19 00:20:17;;;;;;;6.30;1.63;;;11.20;99.90;;;;;;5019042;28;20018;-84
2022/09/19 00:24:45;;;;;;;3.60;1.50;;;;;;;;;;5001827;28;20022;-80
2022/09/19 00:25:29;;;;;;;4.25;1.60;;;;;;;;;;5017724;28;20040;-83
2022/09/19 00:27:55;;;;;;;3.40;1.63;;;;;;;;;;4999442;28;20038;-85
2022/09/19 00:30:21;;;;;;;3.40;1.52;;;;;;;;;;5020695;28;20025;-84
2022/09/19 00:32:48;;;;;;;3.33;1.40;;;;;;;;;;5022071;28;20034;-85
2022/09/19 00:35:15;;;;;;;2.63;1.20;;;11.00;99.90;;;;;;5005627;28;20246;-84
2022/09/19 00:37:40;;;;;;;3.15;1.65;;;10.80;99.90;;;;;;5019743;28;20037;-85
2022/09/19 00:40:06;;;;;;;2.00;0.93;;;10.80;99.90;;;;;;5005604;28;20123;-85
2022/09/19 00:42:33;;;;;;;4.00;1.25;;;10.80;99.90;;;;;;5002333;28;20033;-84
2022/09/19 00:45:06;;;;;;;2.63;1.23;;;10.60;99.90;;;;;;5018355;28;20025;-83
2022/09/19 00:47:40;;;;;;;3.45;1.42;;;10.60;99.90;;;;;;4998575;28;20034;-82
2022/09/19 00:50:11;;;;;;;3.53;1.15;;;12.00;99.90;;;;;;5014116;28;20038;-83
2022/09/19 00:52:43;;;;;;;3.30;1.20;;;12.30;99.90;;;;;;5010957;28;20395;-81
2022/09/19 00:55:09;;;;;;;2.58;1.10;;;10.50;99.90;;;;;;5000871;28;20037;-82
2022/09/19 00:58:06;;;;;;;2.65;1.10;;;13.50;99.90;;;;;;5016984;28;20483;-84
2022/09/19 01:00:34;;;;;;;3.42;1.00;;;10.50;99.90;;;;;;5006089;28;20038;-81
2022/09/19 01:03:06;;;;;;;2.17;1.10;;;10.80;99.90;;;;;;4995034;28;20121;-80
2022/09/19 01:05:48;;;;;;;2.20;1.10;;;10.40;99.90;;;;;;5017271;28;20038;-82
2022/09/19 01:08:32;;;;;;;2.95;1.00;;;12.10;99.90;;;;;;5015336;28;20022;-84
2022/09/19 01:10:57;;;;;;;1.80;1.10;;;10.30;99.90;;;;;;4993451;28;20437;-84
2022/09/19 01:14:05;;;;;;;2.92;1.27;;;10.40;99.90;;;;;;4997064;28;20076;-82
2022/09/19 01:16:41;;;;;;;2.30;1.23;;;10.30;99.90;;;;;;4995081;28;20038;-84
2022/09/19 01:19:37;;;;;;;2.85;1.20;;;12.00;99.90;;;;;;4995892;28;20049;-80
2022/09/19 01:22:25;;;;;;;2.47;1.33;;;10.20;99.90;;;;;;4998868;28;20037;-80
2022/09/19 01:25:06;;;;;;;3.17;1.50;;;10.20;99.90;;;;;;5001548;28;20041;-82
2022/09/19 01:28:06;;;;;;;7.55;1.42;;;11.20;99.90;;;;;;5011214;28;20026;-84
2022/09/19 01:30:36;;;;;;;1.67;1.10;;;10.20;99.90;;;;;;5008227;28;20407;-83
2022/09/19 01:33:20;;;;;;;2.78;1.25;;;10.30;99.90;;;;;;4996412;28;20025;-83
2022/09/19 01:35:50;;;;;;;2.72;1.15;;;10.20;99.90;;;;;;5000520;28;20045;-83
2022/09/19 01:38:23;;;;;;;3.03;1.08;;;11.40;99.90;;;;;;4999294;28;20029;-81
2022/09/19 01:40:50;;;;;;;2.55;1.10;;;10.20;99.90;;;;;;4999580;28;20108;-83
2022/09/19 01:43:18;;;;;;;1.52;0.90;;;10.80;99.90;;;;;;4999384;28;20384;-84
2022/09/19 01:45:45;;;;;;;4.68;1.55;;;11.50;99.90;;;;;;4993241;28;20897;-84
2022/09/19 01:48:24;;;;;;;3.15;1.50;;;11.50;99.90;;;;;;5011279;28;20064;-86
2022/09/19 01:51:21;;;;;;;2.42;1.30;;;10.10;99.90;;;;;;5032647;28;20016;-88
2022/09/19 01:53:48;;;;;;;3.72;1.55;;;;;;;;;;5016571;28;20033;-86
2022/09/19 01:56:39;;;;;;;3.03;1.40;;;10.20;99.90;;;;;;5014232;28;20053;-82
2022/09/19 01:59:13;;;;;;;3.20;1.25;;;10.10;99.90;;;;;;5001538;28;20034;-81
2022/09/19 02:01:55;;;;;;;5.25;1.60;;;10.20;99.90;;;;;;5007444;28;20128;-83
2022/09/19 02:04:35;;;;;;;6.63;1.75;;;10.70;99.90;;;;;;5013436;28;20033;-82
2022/09/19 02:07:09;;;;;;;3.40;1.23;;;10.20;99.90;;;;;;5012614;28;20022;-86
2022/09/19 02:10:04;;;;;;;2.80;1.20;;;10.20;99.90;;;;;;4972478;28;20251;-81
2022/09/19 02:12:34;;;;;;;3.20;1.48;;;10.10;99.90;;;;;;4993483;28;20029;-80
2022/09/19 02:15:03;;;;;;;2.97;1.25;;;10.10;99.90;;;;;;4996780;28;20018;-82
2022/09/19 02:17:53;;;;;;;2.10;1.05;;;11.20;99.90;;;;;;5004850;28;20500;-82
2022/09/19 02:20:29;;;;;;;1.83;1.13;;;10.00;99.90;;;;;;4996013;28;20394;-84
2022/09/19 02:23:05;;;;;;;2.60;1.17;;;9.90;99.90;;;;;;4989489;28;20030;-82
2022/09/19 02:25:34;;;;;;;2.05;1.10;;;9.90;99.90;;;;;;4995165;28;20034;-83
2022/09/19 02:28:11;;;;;;;2.80;1.40;;;9.90;99.90;;;;;;4997113;28;20116;-84
2022/09/19 02:30:39;;;;;;;1.67;1.15;;;9.70;99.90;;;;;;5010237;28;20029;-82
2022/09/19 02:33:06;;;;;;;5.93;1.63;;;11.10;99.90;;;;;;4990880;28;20384;-82
2022/09/19 02:35:45;;;;;;;2.92;1.25;;;10.90;99.90;;;;;;4994658;28;20082;-81
2022/09/19 02:38:14;;;;;;;5.50;1.20;;;9.50;99.90;;;;;;5012964;28;20026;-83
2022/09/19 02:41:01;;;;;;;2.28;1.20;;;10.10;99.90;;;;;;4995837;28;20121;-81
2022/09/19 02:43:40;;;;;;;3.60;1.08;;;9.50;99.90;;;;;;4994408;28;20471;-83
2022/09/19 02:46:19;;;;;;;2.70;1.40;;;10.40;99.90;;;;;;4992588;28;20030;-86
2022/09/19 02:48:52;;;;;;;2.10;1.20;;;9.60;99.90;;;;;;5012096;28;20035;-82
2022/09/19 02:51:30;;;;;;;3.10;1.42;;;9.60;99.90;;;;;;4993097;28;20030;-80
2022/09/19 02:54:01;;;;;;;6.75;1.67;;;9.50;99.90;;;;;;5010549;28;20073;-80
2022/09/19 02:56:33;;;;;;;4.50;1.70;;;10.70;99.90;;;;;;5007932;28;20029;-85
2022/09/19 02:59:07;;;;;;;3.30;1.60;;;9.60;99.90;;;;;;5000808;28;20022;-84
2022/09/19 03:01:36;;;;;;;4.82;1.60;;;9.60;99.90;;;;;;5000597;28;20022;-81
2022/09/19 03:04:12;;;;;;;3.47;1.40;;;10.20;99.90;;;;;;5000152;28;20036;-85
2022/09/19 03:06:53;;;;;;;2.60;1.60;;;9.60;99.90;;;;;;4996908;28;20038;-83
2022/09/19 03:09:23;;;;;;;3.63;1.33;;;9.60;99.90;;;;;;5002314;28;20034;-82
2022/09/19 03:11:53;;;;;;;;;;;11.90;99.90;;;;;;4981321;28;20553;-82
2022/09/19 03:14:19;;;;;;;2.75;1.30;;;9.50;99.90;;;;;;5013355;28;19913;-79
2022/09/19 03:16:50;;;;;;;4.60;1.50;;;9.50;99.90;;;;;;5002849;28;20040;-82
2022/09/19 03:19:15;;;;;;;;;;;12.50;99.90;;;;;;5017835;28;20030;-80
2022/09/19 03:21:41;;;;;;;2.67;1.30;;;;;;;;;;5017542;28;19913;-79
2022/09/19 03:24:08;;;;;;;2.30;1.13;;;9.50;99.90;;;;;;4997684;28;20022;-80
2022/09/19 03:26:38;;;;;;;3.40;1.25;;;10.60;99.90;;;;;;5016292;28;20026;-83
2022/09/19 03:29:08;;;;;;;2.47;1.35;;;12.50;99.90;;;;;;4994896;28;20061;-83
2022/09/19 03:31:34;;;;;;;4.00;1.40;;;9.80;99.90;;;;;;4993813;28;20049;-82
2022/09/19 03:34:03;;;;;;;2.78;1.50;;;9.50;99.90;;;;;;5010420;28;20030;-81
2022/09/19 03:36:30;;;;;;;4.43;1.63;;;12.30;99.90;;;;;;4998461;28;20040;-81
2022/09/19 03:39:01;;;;;;;4.95;1.30;;;10.50;99.90;;;;;;5000403;28;20034;-84
2022/09/19 03:41:30;;;;;;;5.88;2.45;;;8.90;99.90;;;;;;4998817;28;20028;-83
2022/09/19 03:43:59;;;;;;;6.25;1.70;;;10.10;99.90;;;;;;5016345;28;20523;-84
2022/09/19 03:46:26;;;;;;;2.83;1.47;;;;;;;;;;5002748;28;20033;-83
2022/09/19 03:48:52;;;;;;;3.53;1.60;;;9.30;99.90;;;;;;4992950;28;20280;-82
2022/09/19 03:51:18;;;;;;;5.03;1.52;;;;;;;;;;4994162;28;20623;-87
2022/09/19 03:53:44;;;;;;;5.60;1.70;;;9.30;99.90;;;;;;5012266;28;20121;-83
2022/09/19 03:56:12;;;;;;;3.75;1.55;;;9.40;99.90;;;;;;5012484;28;20030;-81
2022/09/19 03:58:38;;;;;;;4.15;1.42;;;9.40;99.90;;;;;;4994722;28;20034;-85
2022/09/19 04:01:06;;;;;;;8.07;1.48;;;9.50;99.90;;;;;;4993972;28;20033;-84
2022/09/19 04:03:33;;;;;;;5.78;1.80;;;9.50;99.90;;;;;;4994766;28;20080;-84
2022/09/19 04:06:00;;;;;;;5.35;1.80;;;11.40;99.90;;;;;;4992510;28;20040;-86
2022/09/19 04:08:26;;;;;;;6.13;1.63;;;9.30;99.90;;;;;;5009092;28;20033;-81
2022/09/19 04:10:52;;;;;;;5.18;1.50;;;;;;;;;;4994969;28;20049;-84
2022/09/19 04:13:20;;;;;;;3.25;1.70;;;9.30;99.90;;;;;;4991659;28;20069;-82
2022/09/19 04:15:46;;;;;;;5.20;1.60;;;;;;;;;;5013846;28;20061;-85
2022/09/19 04:18:12;;;;;;;4.45;1.45;;;9.30;99.90;;;;;;5016382;28;20030;-85
2022/09/19 04:20:39;;;;;;;2.80;1.38;;;10.70;99.90;;;;;;5005369;28;20029;-84
2022/09/19 04:23:16;;;;;;;2.67;1.58;;;11.20;99.90;;;;;;4981005;28;20499;-85
2022/09/19 04:25:42;;;;;;;4.28;2.00;;;8.30;99.90;;;;;;4997621;28;20128;-83
2022/09/19 04:28:10;;;;;;;2.63;1.40;;;9.40;99.90;;;;;;5014825;28;20601;-84
2022/09/19 04:30:37;;;;;;;4.03;1.73;;;12.00;99.90;;;;;;5003348;28;20042;-86
2022/09/19 04:33:04;;;;;;;3.03;1.50;;;9.20;99.90;;;;;;5017190;28;20026;-84
2022/09/19 04:35:35;;;;;;;2.60;1.33;;;9.20;99.90;;;;;;4996826;28;20026;-88
2022/09/19 04:38:01;;;;;;;;;;;9.10;99.90;;;;;;5033804;28;20025;-88
2022/09/19 04:40:29;;;;;;;5.93;1.83;;;9.20;99.90;;;;;;5016642;28;19914;-86
2022/09/19 04:42:56;;;;;;;4.40;1.63;;;9.20;99.90;;;;;;5007063;28;20014;-89
2022/09/19 04:45:22;;;;;;;5.68;1.70;;;9.20;99.90;;;;;;5009949;28;20046;-82
2022/09/19 04:47:47;;;;;;;4.20;1.70;;;9.20;99.90;;;;;;5000250;28;20568;-82
2022/09/19 04:50:14;;;;;;;3.95;1.67;;;9.30;99.90;;;;;;4997704;28;20431;-79
2022/09/19 04:52:41;;;;;;;8.07;1.90;;;9.20;99.90;;;;;;5013378;28;20029;-80
2022/09/19 04:55:08;;;;;;;3.35;1.60;;;9.20;99.90;;;;;;4996551;28;21953;-83
2022/09/19 04:57:34;;;;;;;3.92;1.90;;;9.20;99.90;;;;;;4978470;28;20133;-83
2022/09/19 05:00:02;;;;;;;3.45;1.73;;;9.10;99.90;;;;;;4992068;28;20109;-83
2022/09/19 05:02:29;;;;;;;3.42;1.75;;;9.20;99.90;;;;;;4989386;28;20018;-83
2022/09/19 05:04:55;;;;;;;5.72;1.70;;;9.50;99.90;;;;;;5016475;28;20045;-82
2022/09/19 05:07:33;;;;;;;5.93;2.38;;;9.20;99.90;;;;;;5017379;28;20029;-82
2022/09/19 05:09:59;;;;;;;5.93;2.10;;;9.20;99.90;;;;;;4993815;28;20412;-83
2022/09/19 05:12:25;;;;;;;5.50;2.15;;;9.60;99.90;;;;;;5012589;28;20038;-85
2022/09/19 05:14:51;;;;;;;6.20;2.10;;;10.80;99.90;;;;;;4991637;28;20053;-87
2022/09/19 05:17:17;;;;;;;27.38;13.10;;;9.20;99.90;;;;;;4993537;28;20022;-84
2022/09/19 05:19:44;;;;;;;5.13;2.15;;;10.30;99.90;;;;;;4993859;28;20030;-84
2022/09/19 05:22:10;;;;;;;7.75;2.05;;;9.50;99.90;;;;;;4997821;28;20030;-82
2022/09/19 05:24:37;;;;;;;5.38;2.40;;;;;;;;;;5005168;28;20558;-82
2022/09/19 05:27:03;;;;;;;7.72;2.25;;;9.10;99.90;;;;;;5031533;28;20013;-87
2022/09/19 05:29:32;;;;;;;4.30;2.10;;;9.10;99.90;;;;;;5019338;28;20022;-87
2022/09/19 05:32:00;;;;;;;5.57;2.30;;;9.00;99.90;;;;;;5017932;28;20505;-84
2022/09/19 05:34:27;;;;;;;5.93;2.30;;;7.10;99.90;;;;;;5009980;28;20061;-84
2022/09/19 05:36:53;;;;;;;8.15;2.60;;;11.80;99.90;;;;;;4998852;28;20502;-82
2022/09/19 05:39:19;;;;;;;5.50;2.55;;;;;;;;;;5011525;28;20061;-85
2022/09/19 05:41:44;;;;;;;5.70;2.20;;;9.00;99.90;;;;;;5015600;28;21426;-88
2022/09/19 05:44:11;;;;;;;6.93;2.47;;;;;;;;;;5013983;28;20097;-89
2022/09/19 05:46:38;;;;;;;6.82;2.40;;;9.10;99.90;;;;;;5015434;28;20014;-88
2022/09/19 05:49:05;;;;;;;6.25;2.88;;;11.90;99.90;;;;;;5001000;28;20026;-88
2022/09/19 05:51:31;;;;;;;8.20;2.40;;;9.20;99.90;;;;;;5028216;28;20030;-89
2022/09/19 05:53:56;;;;;;;7.95;1.95;;;9.30;99.90;;;;;;5016268;28;20044;-85
2022/09/19 05:56:23;;;;;;;8.30;2.20;;;11.90;99.90;;;;;;5015377;28;20037;-88
2022/09/19 05:58:52;;;;;;;6.30;1.88;;;11.80;99.90;;;;;;5012114;28;20058;-87
2022/09/19 06:01:18;;;;;;;7.88;2.13;;;11.90;99.90;;;;;;5025321;28;20042;-83
2022/09/19 06:03:44;;;;;;;5.63;1.77;;;11.90;99.90;;;;;;5001502;28;20117;-84
2022/09/19 06:06:13;;;;;;;5.78;2.10;;;11.80;99.90;;;;;;5001908;28;20034;-83
2022/09/19 06:08:41;;;;;;;7.07;2.53;;;12.00;99.90;;;;;;4994153;28;20022;-84
2022/09/19 06:11:08;;;;;;;9.65;2.40;;;10.40;99.90;;;;;;5011593;28;20368;-84
2022/09/19 06:16:18;;;;;;;7.40;2.50;;;12.10;99.90;;;;;;5010404;28;20028;-83
2022/09/19 06:18:45;;;;;;;8.18;2.53;;;9.60;99.90;;;;;;5008879;28;20057;-86
2022/09/19 06:21:12;;;;;;;6.70;2.35;;;9.70;99.90;;;;;;5014749;28;20026;-82
2022/09/19 06:23:39;;;;;;;7.13;2.58;;;10.20;99.90;;;;;;5001806;28;20475;-80
2022/09/19 06:26:04;;;;;;;5.90;2.60;;;12.50;99.90;;;;;;5001589;28;20033;-80
2022/09/19 06:28:30;;;;;;;10.98;2.83;;;;;;;;;;5015762;28;20487;-82
2022/09/19 06:31:03;;;;;;;6.93;2.55;;;9.90;99.90;;;;;;5004184;28;20030;-85
2022/09/19 06:33:30;;;;;;;8.85;3.30;;;12.70;99.90;;;;;;5007082;28;20034;-81
2022/09/19 06:35:58;;;;;;;8.18;3.33;;;11.10;99.90;;;;;;5003950;28;20034;-83
2022/09/19 06:38:25;;;;;;;9.02;3.10;;;;;;;;;;5016490;28;20510;-83
2022/09/19 06:40:51;;;;;;;9.00;3.30;;;10.10;99.90;;;;;;4987371;28;20026;-82
2022/09/19 06:43:17;;;;;;;9.60;3.30;;;10.70;99.90;;;;;;5010470;28;20079;-85
2022/09/19 06:45:43;;;;;;;8.68;3.33;;;;;;;;;;4997001;28;20041;-84
2022/09/19 06:48:09;;;;;;;9.82;3.50;;;10.30;99.90;;;;;;4999524;28;20029;-86
2022/09/19 06:50:36;;;;;;;9.23;3.47;;;13.50;99.90;;;;;;5001790;28;20327;-85
2022/09/19 06:53:02;;;;;;;9.38;3.33;;;12.20;99.90;;;;;;5017128;28;20040;-83
2022/09/19 06:55:29;;;;;;;9.93;2.97;;;10.50;99.90;;;;;;4994382;28;20092;-85
2022/09/19 06:58:00;;;;;;;9.65;3.72;;;13.10;99.90;;;;;;5002593;28;20022;-82
2022/09/19 07:00:31;;;;;;;7.60;2.63;;;11.70;99.90;;;;;;5017510;28;20036;-81
2022/09/19 07:03:05;;;;;;;4.07;2.88;;;13.40;99.90;;;;;;5005574;28;20458;-80
2022/09/19 07:05:32;;;;;;;6.78;3.53;;;12.20;99.90;;;;;;5010720;28;20526;-82
2022/09/19 07:07:58;;;;;;;11.73;3.25;;;10.90;99.90;;;;;;5009163;28;20030;-81
2022/09/19 07:10:25;;;;;;;8.27;2.95;;;11.10;99.90;;;;;;4998156;28;20034;-83
2022/09/19 07:13:01;;;;;;;7.40;2.88;;;11.20;99.90;;;;;;5014088;28;20021;-84
2022/09/19 07:15:37;;;;;;;5.60;2.85;;;11.30;99.90;;;;;;4994211;28;20034;-80
2022/09/19 07:18:08;;;;;;;16.23;2.67;;;11.30;99.90;;;;;;5000904;28;20124;-82
2022/09/19 07:20:34;;;;;;;9.60;3.22;;;11.40;99.90;;;;;;5011980;28;20054;-81
2022/09/19 07:23:21;;;;;;;7.90;3.47;;;12.20;99.90;;;;;;4998345;28;20036;-84
2022/09/19 07:25:48;;;;;;;4.72;2.53;;;11.60;99.90;;;;;;4999314;28;20042;-84
2022/09/19 07:28:16;;;;;;;9.85;2.83;;;11.70;99.90;;;;;;4995342;28;20022;-80
2022/09/19 07:30:44;;;;;;;6.68;3.10;;;12.00;99.90;;;;;;4998383;28;20144;-84
2022/09/19 07:33:13;;;;;;;11.68;3.60;;;11.70;99.90;;;;;;4998483;28;20152;-79
2022/09/19 07:35:41;;;;;;;10.20;3.67;;;11.80;99.90;;;;;;4997587;28;20092;-81
2022/09/19 07:38:13;;;;;;;9.95;3.30;;;11.80;99.90;;;;;;4978880;28;20077;-82
2022/09/19 07:40:39;;;;;;;9.18;3.58;;;11.90;99.90;;;;;;4997166;28;20022;-81
2022/09/19 07:43:05;;;;;;;9.85;3.90;;;12.30;99.90;;;;;;4998034;28;20022;-82
2022/09/19 07:45:36;;;;;;;15.05;4.13;;;14.90;99.90;;;;;;5015322;28;20487;-81
2022/09/19 07:48:03;;;;;;;11.02;4.03;;;15.00;99.90;;;;;;5016562;28;20053;-84
2022/09/19 07:50:30;;;;;;;8.80;4.30;;;15.50;99.90;;;;;;4999431;28;20026;-81
2022/09/19 07:53:02;;;;;;;9.25;3.65;;;12.40;99.90;;;;;;5009514;28;20034;-84
2022/09/19 07:55:29;;;;;;;10.15;3.70;;;12.50;99.90;;;;;;4997282;28;20097;-85
2022/09/19 07:57:57;;;;;;;11.95;3.63;;;13.10;99.90;;;;;;5013444;28;20029;-81
2022/09/19 08:00:26;;;;;;;11.52;3.65;;;14.00;99.90;;;;;;4998869;28;20030;-84
2022/09/19 08:03:02;;;;;;;10.02;3.88;;;12.80;99.90;;;;;;4995180;28;20022;-83
2022/09/19 08:05:32;;;;;;;9.43;3.28;;;12.80;99.90;;;;;;5004362;28;20030;-84
2022/09/19 08:07:58;;;;;;;6.72;2.90;;;12.90;99.90;;;;;;5002294;28;20026;-81
2022/09/19 08:10:24;;;;;;;10.45;4.22;;;13.00;99.90;;;;;;5009324;28;20042;-82
2022/09/19 08:12:49;;;;;;;9.25;3.88;;;13.00;99.90;;;;;;5008367;28;20069;-84
2022/09/19 08:15:17;;;;;;;11.18;4.53;;;12.90;99.90;;;;;;5011094;28;20680;-85
2022/09/19 08:17:53;;;;;;;11.25;4.00;;;12.90;99.90;;;;;;4997413;28;20094;-85
2022/09/19 08:20:19;;;;;;;12.80;4.18;;;13.00;99.90;;;;;;5004423;28;20022;-81
2022/09/19 08:22:45;;;;;;;7.95;4.10;;;14.80;99.90;;;;;;5018779;28;20034;-84
2022/09/19 08:25:11;;;;;;;11.60;3.38;;;13.40;99.90;;;;;;5001558;28;20084;-82
2022/09/19 08:27:37;;;;;;;11.55;3.92;;;14.50;99.90;;;;;;5001027;28;20557;-81
2022/09/19 08:30:05;;;;;;;14.15;4.82;;;13.40;99.90;;;;;;5000550;28;20522;-83
2022/09/19 08:32:31;;;;;;;10.88;3.65;;;13.20;99.90;;;;;;5003289;28;20602;-82
2022/09/19 08:34:57;;;;;;;14.05;3.72;;;13.30;99.90;;;;;;4995613;28;20026;-83
2022/09/19 08:37:24;;;;;;;9.73;3.20;;;13.40;99.90;;;;;;5001132;28;20030;-82
2022/09/19 08:42:48;;;;;;;12.50;3.20;;;13.60;99.90;;;;;;5015892;28;20099;-82
2022/09/19 08:45:22;;;;;;;12.02;3.22;;;13.80;99.90;;;;;;4995156;28;20080;-84
2022/09/19 08:47:49;;;;;;;12.00;3.67;;;13.90;99.90;;;;;;5005661;28;20035;-83
2022/09/19 08:50:21;;;;;;;11.90;2.70;;;14.20;99.90;;;;;;5005961;28;20126;-86
2022/09/19 08:52:52;;;;;;;10.93;3.42;;;14.10;99.90;;;;;;5015539;28;20038;-84
2022/09/19 08:55:21;;;;;;;8.13;2.90;;;14.30;99.90;;;;;;5023295;28;20132;-80
2022/09/19 08:57:55;;;;;;;8.70;2.53;;;14.60;99.90;;;;;;5020870;28;20127;-82
2022/09/19 09:00:23;;;;;;;8.50;2.97;;;14.60;99.90;;;;;;5001483;28;20037;-83
2022/09/19 09:02:51;;;;;;;9.95;2.60;;;14.70;99.90;;;;;;5016332;28;20502;-82
2022/09/19 09:05:36;;;;;;;14.85;3.35;;;14.70;99.90;;;;;;5005130;28;20557;-86
2022/09/19 09:08:41;;;;;;;9.68;2.65;;;14.70;99.90;;;;;;5027522;28;20026;-83
2022/09/19 09:11:07;;;;;;;10.80;3.05;;;14.60;99.90;;;;;;4998990;28;20041;-82
2022/09/19 09:13:43;;;;;;;13.98;3.22;;;14.60;99.90;;;;;;5015420;28;20034;-84
2022/09/19 09:16:17;;;;;;;11.90;3.05;;;14.70;99.90;;;;;;5012992;28;20029;-82
2022/09/19 09:19:07;;;;;;;10.85;2.88;;;14.70;99.90;;;;;;5000505;28;20061;-81
2022/09/19 09:22:02;;;;;;;5.93;2.38;;;14.80;99.90;;;;;;5002137;28;20038;-82
2022/09/19 09:24:36;;;;;;;12.43;3.35;;;14.90;99.90;;;;;;4994294;28;20030;-82
2022/09/19 09:27:08;;;;;;;9.63;2.63;;;15.00;99.90;;;;;;5004787;28;20033;-82
2022/09/19 09:29:53;;;;;;;12.23;2.78;;;14.80;99.90;;;;;;4997060;28;20309;-82
2022/09/19 09:32:32;;;;;;;15.13;3.30;;;15.00;99.90;;;;;;4997947;28;20026;-81
2022/09/19 09:35:12;;;;;;;12.52;3.15;;;15.20;99.90;;;;;;5005882;28;20036;-82
2022/09/19 09:37:48;;;;;;;13.43;2.90;;;15.50;99.90;;;;;;5014605;28;20037;-85
2022/09/19 09:43:09;;;;;;;11.90;2.78;;;16.00;99.90;;;;;;5015446;28;20033;-81
2022/09/19 09:45:48;;;;;;;13.60;2.55;;;16.20;99.90;;;;;;5017259;28;20021;-82
2022/09/19 09:48:33;;;;;;;8.63;2.92;;;16.40;99.90;;;;;;5009040;28;20046;-85
2022/09/19 09:51:41;;;;;;;12.70;2.83;;;16.50;99.90;;;;;;5029540;28;20057;-84
2022/09/19 09:57:14;;;;;;;9.07;2.25;;;16.80;99.90;;;;;;5018786;28;20044;-83
2022/09/19 10:05:36;;;;;;;11.70;2.92;;;16.70;99.90;;;;;;5020631;28;20133;-83
2022/09/19 10:08:28;;;;;;;9.35;2.33;;;18.10;99.90;;;;;;5003343;28;20033;-83
2022/09/19 10:11:11;;;;;;;9.82;3.00;;;17.00;99.90;;;;;;4994880;28;20041;-83
2022/09/19 10:13:46;;;;;;;15.50;2.97;;;16.70;99.90;;;;;;5018556;28;20037;-80
2022/09/19 10:16:14;;;;;;;12.23;2.97;;;;;;;;;;5016336;28;20025;-83
2022/09/19 10:18:50;;;;;;;15.65;2.63;;;16.60;99.90;;;;;;4995173;28;20026;-83
2022/09/19 10:21:16;;;;;;;10.43;2.85;;;;;;;;;;5015428;28;20025;-84
2022/09/19 10:23:45;;;;;;;9.32;2.88;;;17.00;99.90;;;;;;5002723;28;20101;-81
2022/09/19 10:26:15;;;;;;;9.30;2.38;;;17.30;99.90;;;;;;4999711;28;20025;-80
2022/09/19 10:28:49;;;;;;;6.68;1.65;;;17.10;99.90;;;;;;5017527;28;20129;-83
2022/09/19 10:31:34;;;;;;;6.65;1.70;;;17.10;99.90;;;;;;5017187;28;20502;-81
2022/09/19 10:34:04;;;;;;;9.63;1.75;;;17.20;99.90;;;;;;5006873;28;20026;-83
2022/09/19 10:36:34;;;;;;;9.98;1.75;;;17.40;99.90;;;;;;5017428;28;20181;-81
2022/09/19 10:39:13;;;;;;;5.53;1.88;;;17.40;99.90;;;;;;5002022;28;20022;-80
2022/09/19 10:41:40;;;;;;;9.80;2.13;;;17.30;99.80;;;;;;5003593;28;20030;-84
2022/09/19 10:44:22;;;;;;;8.07;1.70;;;17.30;99.90;;;;;;4999831;28;20023;-81
2022/09/19 10:47:01;;;;;;;8.48;1.88;;;15.20;99.70;;;;;;4998399;28;20022;-84
2022/09/19 10:49:31;;;;;;;6.80;1.73;;;17.40;99.90;;;;;;5031624;28;20013;-81
2022/09/19 10:52:00;;;;;;;3.00;1.20;;;19.30;99.90;;;;;;5015184;28;20109;-87
2022/09/19 10:54:41;;;;;;;9.38;1.83;;;17.00;99.10;;;;;;5011585;28;20030;-87
2022/09/19 10:57:34;;;;;;;6.10;1.65;;;17.00;99.50;;;;;;5032855;28;20028;-86
2022/09/19 11:00:04;;;;;;;5.45;1.30;;;;;;;;;;5027544;28;20160;-84
2022/09/19 11:02:30;;;;;;;5.63;1.02;;;;;;;;;;5028146;28;20022;-84
2022/09/19 11:05:02;;;;;;;6.13;1.63;;;16.70;98.30;;;;;;5025980;28;20473;-84
2022/09/19 11:07:44;;;;;;;6.38;1.38;;;16.60;98.40;;;;;;5014299;28;20030;-80
2022/09/19 11:10:37;;;;;;;4.63;1.20;;;17.30;98.90;;;;;;4992499;28;20034;-82
2022/09/19 11:13:14;;;;;;;4.97;1.40;;;16.40;99.30;;;;;;5004838;28;20085;-82
2022/09/19 11:15:50;;;;;;;5.20;1.00;;;16.40;97.60;;;;;;4986560;28;20069;-84
2022/09/19 11:18:43;;;;;;;6.20;1.33;;;16.40;98.40;;;;;;4994484;28;20064;-82
2022/09/19 11:21:27;;;;;;;5.65;1.40;;;16.50;98.50;;;;;;4993870;28;20026;-84
2022/09/19 11:24:13;;;;;;;3.42;1.00;;;16.40;98.30;;;;;;5003730;28;20022;-84
2022/09/19 11:27:03;;;;;;;6.40;1.40;;;16.70;97.80;;;;;;5005881;28;20049;-83
2022/09/19 11:29:47;;;;;;;6.50;1.85;;;17.10;97.50;;;;;;5009576;28;20033;-78
2022/09/19 11:32:32;;;;;;;7.90;1.33;;;17.60;97.00;;;;;;5009131;28;20046;-85
2022/09/19 11:35:53;;;;;;;4.75;1.33;;;17.90;96.10;;;;;;4994856;28;20033;-82
2022/09/19 11:38:48;;;;;;;7.78;1.25;;;17.80;95.90;;;;;;4980010;28;20057;-83
2022/09/19 11:41:20;;;;;;;3.05;1.00;;;17.70;95.00;;;;;;5015661;28;20072;-80
2022/09/19 11:44:04;;;;;;;6.38;1.83;;;17.50;95.00;;;;;;5010893;28;20740;-79
2022/09/19 11:46:57;;;;;;;4.38;1.25;;;17.30;95.50;;;;;;5010660;28;20029;-82
2022/09/19 11:49:51;;;;;;;4.38;1.25;;;17.10;95.60;;;;;;5008851;28;20033;-80
2022/09/19 11:52:42;;;;;;;6.90;1.58;;;17.00;95.70;;;;;;4984930;28;20030;-80
2022/09/19 11:55:29;;;;;;;7.80;1.50;;;17.00;95.90;;;;;;4999312;28;20121;-82
2022/09/19 11:58:04;;;;;;;4.10;1.23;;;17.10;95.80;;;;;;5007167;28;20537;-82
2022/09/19 12:00:39;;;;;;;2.65;1.02;;;17.50;94.80;;;;;;4988626;28;20036;-80
2022/09/19 12:03:29;;;;;;;6.60;1.50;;;17.80;94.20;;;;;;5004896;28;20033;-80
2022/09/19 12:06:10;;;;;;;5.15;1.00;;;18.00;94.00;;;;;;5009352;28;20053;-84
2022/09/19 12:08:59;;;;;;;6.72;1.20;;;18.10;93.50;;;;;;5009549;28;20037;-79
2022/09/19 12:11:39;;;;;;;3.03;0.90;;;18.20;93.90;;;;;;5006617;28;20030;-81
2022/09/19 12:14:20;;;;;;;5.00;1.40;;;18.00;93.00;;;;;;5005010;28;20589;-79
2022/09/19 12:16:52;;;;;;;3.58;1.10;;;18.00;93.20;;;;;;5011277;28;20182;-80
2022/09/19 12:19:28;;;;;;;5.50;1.40;;;17.90;92.80;;;;;;4992587;28;20026;-80
2022/09/19 12:22:17;;;;;;;5.45;1.00;;;17.80;93.80;;;;;;5006312;28;20026;-85
2022/09/19 12:24:52;;;;;;;6.15;1.20;;;17.60;94.30;;;;;;5011355;28;20574;-83
2022/09/19 12:27:33;;;;;;;7.07;1.17;;;17.60;94.00;;;;;;5005147;28;20097;-80
2022/09/19 12:30:05;;;;;;;5.70;1.10;;;17.60;94.30;;;;;;4987246;28;20031;-80
2022/09/19 12:32:41;;;;;;;5.45;1.35;;;17.50;93.30;;;;;;4988486;28;20112;-84
2022/09/19 12:35:46;;;;;;;3.95;0.90;;;17.70;94.20;;;;;;5005937;28;20036;-81
2022/09/19 12:38:39;;;;;;;4.03;1.15;;;17.90;92.30;;;;;;5011077;28;20093;-81
2022/09/19 12:41:21;;;;;;;3.63;1.10;;;18.40;92.10;;;;;;4993332;28;20037;-84
2022/09/19 12:44:37;;;;;;;4.75;1.02;;;18.70;91.60;;;;;;4998834;28;20030;-80
2022/09/19 12:47:41;;;;;;;3.38;0.90;;;18.50;91.90;;;;;;4962048;28;20038;-83
2022/09/19 12:50:32;;;;;;;4.40;1.13;;;18.40;92.00;;;;;;5002964;28;20026;-81
2022/09/19 12:52:57;;;;;;;;;;;18.30;91.90;;;;;;5012193;28;20490;-81
2022/09/19 12:55:34;;;;;;;3.83;1.00;;;18.10;92.20;;;;;;4991541;28;19913;-83
2022/09/19 12:58:03;;;;;;;5.32;1.35;;;18.10;92.20;;;;;;4997427;28;20034;-82
2022/09/19 13:00:34;;;;;;;9.23;1.13;;;17.90;92.10;;;;;;5010279;28;20093;-82
2022/09/19 13:03:31;;;;;;;6.65;1.60;;;17.90;92.40;;;;;;5008773;28;20053;-81
2022/09/19 13:06:05;;;;;;;5.45;1.70;;;17.90;92.50;;;;;;4995202;28;20030;-85
2022/09/19 13:08:48;;;;;;;4.97;1.23;;;18.00;91.50;;;;;;4998590;28;20038;-81
2022/09/19 13:11:38;;;;;;;4.93;1.50;;;18.10;91.70;;;;;;4999659;28;20048;-82
2022/09/19 13:14:40;;;;;;;4.60;1.17;;;19.60;92.40;;;;;;4993888;28;20053;-82
2022/09/19 13:25:36;;;;;;;5.07;1.77;;;18.10;91.60;;;;;;5020553;28;20073;-82
2022/09/19 13:28:21;;;;;;;5.63;1.27;;;18.00;92.00;;;;;;5002257;28;20042;-82
2022/09/19 13:30:57;;;;;;;3.83;1.23;;;17.90;91.40;;;;;;4987637;28;20042;-81
2022/09/19 13:33:34;;;;;;;6.82;2.78;;;17.80;91.50;;;;;;4994426;28;20022;-80
2022/09/19 13:36:09;;;;;;;4.97;1.40;;;17.70;91.80;;;;;;5014514;28;20038;-80
2022/09/19 13:38:43;;;;;;;6.30;1.83;;;17.50;91.80;;;;;;5027583;28;20063;-84
2022/09/19 13:41:18;;;;;;;6.35;2.08;;;17.50;92.00;;;;;;5012652;28;20033;-82
2022/09/19 13:44:03;;;;;;;5.65;1.13;;;17.50;91.60;;;;;;5005897;28;20034;-84
2022/09/19 13:46:53;;;;;;;3.85;1.05;;;17.60;91.60;;;;;;5012983;28;20894;-81
2022/09/19 13:49:31;;;;;;;4.33;0.93;;;17.70;91.30;;;;;;4994413;28;20018;-81
2022/09/19 13:52:07;;;;;;;6.35;1.88;;;17.80;91.20;;;;;;4995364;28;20030;-79
2022/09/19 13:54:57;;;;;;;6.45;1.23;;;18.00;91.20;;;;;;4976659;28;20034;-81
2022/09/19 13:57:26;;;;;;;;;;;18.10;90.60;;;;;;5009869;28;20026;-81